Scyoc, Pennsylvania
Current Conditions -  °F | °C
As of 2:53 AM on Thursday 29 Jan 2015 (Local Time) from KAOO Reporting Station
Clear Clear  
Wind Chill:   Ceiling: Unl
Heat Index:   Visibility: 10mi
Dew Point:   Wind: 0mph
Humidity: 80%   Direction: NA
Pressure: 30.24"   Gusts: NA
Location:  40.3617°N, 77.6745°W
Report Text: KAOO 290753Z AUTO 00000KT 10SM CLR M13/M16 A3024 RMK AO2 SLP271 T11331161
Loading
Personal Weather Stations






























Interactive Weather Map New forecast layout! Learn more

10-Day Weather Forecast

Advertisements
Track Severe Weather on mobile